»·PEaware :: DAL965 KLAS-KPMD

DAL965 :: KLAS-KPMD

FLIGHT INFORMATION

Flight Status: Arrived
Operator:
Delta Air Lines
More flights by this operator :: More flights under this callsign
Pilot: Jonathan P. (42949)
Aircraft: AIRBUS A319
(A319)
More flights by this aircraft type
Origin: KLAS Harry Reid Intl
United States
Destination: KPMD Palmdale AF Plant 42
United States
More flights between these airports :: More routes between these airports
Route: RADYR2 HEC DYVER PMD
File this flight plan on PilotEdge
Remarks: RMK / SIMBRIEF
Altitude:
(Current/Filed)
32,000ft
Speed:
(Current/Filed)
453kts
Departed: 18-Feb-23 04:53 PM
Arrived: 18-Feb-23 05:25 PM
Distance/Time
Traveled:
168nm/0:32
Distance/Time
To Go:
Arrived

Flight Plot

Page will automatically refresh every two minutes.

Flight plan parsing failed; only flown route is shown


Map Options




Map Legend


Flown Route
Filed Route
Departure Airport
Arrival Airport
Navaid (VOR, NDB)
Fix

Horizontal Profiles

Position Reports

Time Latitude Longitude Heading Altitude Ground
Speed
18-Feb-23 16:35 36.081040 -115.135173 216 2061ft 0kts
18-Feb-23 16:36 36.081040 -115.135173 216 2061ft 0kts
18-Feb-23 16:37 36.081040 -115.135173 216 2061ft 0kts
18-Feb-23 16:38 36.081040 -115.135173 216 2061ft 0kts
18-Feb-23 16:39 36.081040 -115.135172 216 2061ft 0kts
18-Feb-23 16:40 36.081040 -115.135172 216 2061ft 0kts
18-Feb-23 16:41 36.081040 -115.135172 216 2061ft 0kts
18-Feb-23 16:42 36.081108 -115.135122 202 2060ft 2kts
18-Feb-23 16:43 36.081584 -115.134816 171 2058ft 2kts
18-Feb-23 16:44 36.081773 -115.134934 140 2058ft 0kts
18-Feb-23 16:45 36.081773 -115.134934 140 2058ft 0kts
18-Feb-23 16:45 36.081706 -115.134866 140 2058ft 1kts
18-Feb-23 16:47 36.079928 -115.133491 158 2056ft 9kts
18-Feb-23 16:48 36.079341 -115.133501 188 2058ft 5kts
18-Feb-23 16:49 36.078300 -115.132822 94 2058ft 17kts
18-Feb-23 16:50 36.078302 -115.124029 89 2037ft 24kts
18-Feb-23 16:50 36.077847 -115.122046 127 2037ft 7kts
18-Feb-23 16:51 36.077496 -115.121527 144 2037ft 6kts
18-Feb-23 16:52 36.076341 -115.142573 269 2168ft 166kts
18-Feb-23 16:54 36.075703 -115.216078 262 4937ft 215kts
18-Feb-23 16:55 36.034466 -115.276139 198 7292ft 283kts
18-Feb-23 16:55 35.970885 -115.299358 190 9425ft 293kts
18-Feb-23 16:56 35.883658 -115.320655 190 11966ft 349kts
18-Feb-23 16:57 35.778378 -115.346371 190 13414ft 412kts
18-Feb-23 16:58 35.664596 -115.374249 190 16020ft 424kts
18-Feb-23 16:59 35.563860 -115.447433 226 18271ft 440kts
18-Feb-23 17:00 35.482501 -115.558978 0 19021ft 0kts
18-Feb-23 17:01 35.401057 -115.668813 226 19026ft 445kts
18-Feb-23 17:02 35.317119 -115.781151 225 19676ft 451kts
18-Feb-23 17:03 35.231113 -115.893628 225 21512ft 459kts
18-Feb-23 17:04 35.142956 -116.009784 226 23025ft 468kts
18-Feb-23 17:05 35.053992 -116.127235 226 23998ft 474kts
18-Feb-23 17:06 34.964468 -116.244892 225 24011ft 470kts
18-Feb-23 17:07 34.877208 -116.358856 224 24017ft 462kts
18-Feb-23 17:08 34.798887 -116.484810 247 23992ft 466kts
18-Feb-23 17:09 34.779431 -116.638423 261 20807ft 457kts
18-Feb-23 17:10 34.765166 -116.788983 260 17595ft 440kts
18-Feb-23 17:11 34.750749 -116.933830 261 14594ft 424kts
18-Feb-23 17:12 34.736526 -117.074464 261 13006ft 423kts
18-Feb-23 17:13 34.721772 -117.218461 261 13002ft 422kts
18-Feb-23 17:14 34.708298 -117.348891 260 12418ft 361kts
18-Feb-23 17:15 34.696570 -117.460583 260 11675ft 320kts
18-Feb-23 17:16 34.685140 -117.567687 262 10178ft 311kts
18-Feb-23 17:17 34.674484 -117.667781 263 8769ft 303kts
18-Feb-23 17:18 34.662539 -117.770270 258 7981ft 282kts
18-Feb-23 17:19 34.644582 -117.855049 264 6275ft 250kts
18-Feb-23 17:20 34.640611 -117.935433 268 4730ft 223kts
18-Feb-23 17:21 34.636714 -118.001958 268 3753ft 164kts
18-Feb-23 17:22 34.634038 -118.050094 269 2918ft 133kts
18-Feb-23 17:23 34.631827 -118.090845 266 2515ft 75kts
18-Feb-23 17:24 34.633431 -118.097674 62 2518ft 10kts

Navigation Log

Ident Type
Flight plan parsing failed, navigation log unavailable